Time;durP1;ratioP1;P1;durP2;ratioP2;P2;SDS_P1;SDS_P2;PMS_P1;PMS_P2;Temp;Humidity;BMP_temperature;BMP_pressure;BME280_temperature;BME280_humidity;BME280_pressure;Samples;Min_cycle;Max_cycle;Signal;HPM_P1;HPM_P2
2021/09/21 00:02:18;;;;;;;;;;;11.50;99.90;;;;;;8359481;28;19932;-71
2021/09/21 00:06:19;;;;;;;;;;;11.50;99.90;;;;;;8358660;28;20303;-72
2021/09/21 00:10:21;;;;;;;;;;;11.40;99.90;;;;;;8358239;28;19944;-71
2021/09/21 00:14:23;;;;;;;;;;;11.40;99.90;;;;;;8358634;28;19971;-71
2021/09/21 00:18:24;;;;;;;;;;;11.40;99.90;;;;;;8357174;28;19929;-71
2021/09/21 00:22:26;;;;;;;;;;;11.40;99.90;;;;;;8341576;28;19925;-71
2021/09/21 00:26:28;;;;;;;;;;;11.40;99.90;;;;;;8355370;28;19948;-71
2021/09/21 00:30:30;;;;;;;;;;;11.40;99.90;;;;;;8359333;28;19964;-72
2021/09/21 00:34:37;;;;;;;;;;;11.40;99.90;;;;;;8357302;28;20016;-71
2021/09/21 00:38:39;;;;;;;;;;;11.40;99.90;;;;;;8352957;28;19979;-71
2021/09/21 00:42:43;;;;;;;6.07;3.47;;;11.40;99.90;;;;;;8356517;28;19935;-71
2021/09/21 00:46:47;;;;;;;;;;;11.40;99.90;;;;;;8357297;28;19921;-71
2021/09/21 00:50:49;;;;;;;;;;;11.40;99.80;;;;;;8348368;28;19927;-71
2021/09/21 00:54:51;;;;;;;;;;;11.30;99.80;;;;;;8357263;28;19927;-71
2021/09/21 00:58:53;;;;;;;;;;;11.30;99.80;;;;;;8352271;28;20934;-72
2021/09/21 01:02:54;;;;;;;;;;;11.20;99.80;;;;;;8354596;28;19921;-71
2021/09/21 01:06:56;;;;;;;;;;;11.10;99.80;;;;;;8355181;28;19920;-71
2021/09/21 01:10:58;;;;;;;;;;;11.10;99.80;;;;;;8356684;28;20335;-71
2021/09/21 01:15:00;;;;;;;;;;;11.10;99.80;;;;;;8351211;28;19944;-71
2021/09/21 01:19:03;;;;;;;;;;;11.00;99.70;;;;;;8352964;28;20363;-71
2021/09/21 01:23:04;;;;;;;;;;;10.90;99.70;;;;;;8350355;28;20300;-71
2021/09/21 01:27:06;;;;;;;;;;;10.90;99.70;;;;;;8351374;28;19941;-71
2021/09/21 01:31:08;;;;;;;;;;;10.80;99.70;;;;;;8352399;28;19925;-71
2021/09/21 01:35:10;;;;;;;;;;;10.70;99.70;;;;;;8351864;28;19925;-71
2021/09/21 01:39:12;;;;;;;;;;;10.70;99.80;;;;;;8353773;28;20387;-71
2021/09/21 01:43:13;;;;;;;;;;;10.60;99.70;;;;;;8356298;28;19928;-71
2021/09/21 01:47:17;;;;;;;;;;;10.50;99.60;;;;;;8352565;28;19935;-71
2021/09/21 02:00:12;;;;;;;;;;;10.30;99.70;;;;;;8357432;28;19925;-71
2021/09/21 02:04:13;;;;;;;;;;;10.30;99.70;;;;;;8354585;28;20001;-71
2021/09/21 02:08:17;;;;;;;;;;;10.20;99.70;;;;;;8346469;28;19929;-72
2021/09/21 02:12:18;;;;;;;;;;;10.20;99.70;;;;;;8354047;28;20296;-71
2021/09/21 02:16:20;;;;;;;;;;;10.20;99.80;;;;;;8362741;28;19925;-71
2021/09/21 02:20:21;;;;;;;;;;;10.20;99.80;;;;;;8351982;28;19936;-71
2021/09/21 02:24:23;;;;;;;;;;;10.10;99.70;;;;;;8351659;28;19933;-71
2021/09/21 02:28:25;;;;;;;;;;;10.10;99.80;;;;;;8358952;28;20365;-71
2021/09/21 02:32:27;;;;;;;;;;;10.10;99.80;;;;;;8357799;28;19925;-71
2021/09/21 02:36:28;;;;;;;;;;;10.00;99.80;;;;;;8363668;28;19929;-71
2021/09/21 02:40:30;;;;;;;;;;;10.00;99.90;;;;;;8358188;28;20649;-72
2021/09/21 02:44:33;;;;;;;;;;;10.00;99.90;;;;;;8364427;28;20327;-70
2021/09/21 02:48:35;;;;;;;;;;;10.00;99.90;;;;;;8352870;28;19928;-71
2021/09/21 02:52:37;;;;;;;;;;;10.00;99.90;;;;;;8356768;28;19928;-70
2021/09/21 02:56:39;;;;;;;;;;;10.00;99.90;;;;;;8358264;28;19931;-71
2021/09/21 03:00:42;;;;;;;;;;;10.00;99.90;;;;;;8360840;28;19944;-72
2021/09/21 03:04:58;;;;;;;;;;;9.90;99.90;;;;;;8360871;28;19929;-71
2021/09/21 03:09:16;;;;;;;;;;;9.90;99.90;;;;;;8356102;28;19971;-71
2021/09/21 03:17:28;;;;;;;;;;;9.80;99.90;;;;;;8357507;28;20288;-71
2021/09/21 03:21:29;;;;;;;;;;;9.70;99.90;;;;;;8350178;28;19925;-71
2021/09/21 03:25:31;;;;;;;;;;;9.70;99.90;;;;;;8358609;28;20102;-71
2021/09/21 03:29:33;;;;;;;;;;;9.60;99.90;;;;;;8353340;28;19925;-70
2021/09/21 03:33:35;;;;;;;;;;;9.60;99.90;;;;;;8355342;28;19925;-71
2021/09/21 03:37:37;;;;;;;;;;;9.50;99.90;;;;;;8354074;28;19929;-71
2021/09/21 03:41:38;;;;;;;;;;;9.50;99.90;;;;;;8358521;28;19925;-71
2021/09/21 03:45:40;;;;;;;;;;;9.50;99.90;;;;;;8355017;28;20392;-71
2021/09/21 03:49:42;;;;;;;;;;;9.40;99.90;;;;;;8356651;28;19948;-71
2021/09/21 03:53:45;;;;;;;;;;;9.40;99.90;;;;;;8354403;28;19929;-71
2021/09/21 03:57:47;;;;;;;;;;;9.40;99.90;;;;;;8353418;28;19987;-71
2021/09/21 04:01:49;;;;;;;;;;;9.30;99.90;;;;;;8355381;28;20388;-72
2021/09/21 04:05:51;;;;;;;;;;;9.30;99.90;;;;;;8355124;28;19933;-71
2021/09/21 04:09:52;;;;;;;6.63;3.20;;;9.20;99.90;;;;;;8355634;28;19925;-71
2021/09/21 04:13:54;;;;;;;5.18;2.72;;;9.20;99.90;;;;;;8353506;28;20535;-71
2021/09/21 04:17:56;;;;;;;;;;;9.20;99.90;;;;;;8353376;28;20045;-71
2021/09/21 04:21:57;;;;;;;;;;;9.20;99.90;;;;;;8349964;28;20058;-71
2021/09/21 04:25:59;;;;;;;7.15;3.75;;;9.20;99.90;;;;;;8353952;28;19928;-71
2021/09/21 04:30:03;;;;;;;6.35;3.08;;;9.10;99.90;;;;;;8353218;28;20064;-71
2021/09/21 04:34:05;;;;;;;6.57;2.97;;;9.10;99.90;;;;;;8352291;28;20064;-71
2021/09/21 04:38:07;;;;;;;;;;;9.10;99.90;;;;;;8351078;28;20059;-71
2021/09/21 04:42:09;;;;;;;5.28;2.83;;;9.10;99.90;;;;;;8351979;28;19921;-72
2021/09/21 04:46:11;;;;;;;7.97;3.45;;;9.00;99.90;;;;;;8356614;28;20412;-72
2021/09/21 04:50:13;;;;;;;7.00;3.10;;;9.00;99.90;;;;;;8352269;28;20052;-71
2021/09/21 04:54:15;;;;;;;;;;;8.90;99.90;;;;;;8350332;28;19920;-71
2021/09/21 04:58:17;;;;;;;;;;;8.90;99.90;;;;;;8349220;28;19928;-70
2021/09/21 05:02:18;;;;;;;;;;;8.80;99.90;;;;;;8347932;28;19921;-71
2021/09/21 05:06:20;;;;;;;;;;;8.80;99.90;;;;;;8349583;28;20058;-70
2021/09/21 05:10:22;;;;;;;;;;;8.80;99.90;;;;;;8346737;28;19921;-71
2021/09/21 05:14:23;;;;;;;;;;;8.80;99.90;;;;;;8354773;28;19929;-71
2021/09/21 05:18:25;;;;;;;;;;;8.80;99.90;;;;;;8362550;28;19979;-71
2021/09/21 05:22:27;;;;;;;;;;;8.70;99.90;;;;;;8350479;28;19921;-71
2021/09/21 05:26:28;;;;;;;;;;;8.70;99.90;;;;;;8368681;28;19947;-70
2021/09/21 05:30:30;;;;;;;;;;;8.70;99.90;;;;;;8348347;28;19920;-71
2021/09/21 05:34:32;;;;;;;;;;;8.70;99.90;;;;;;8346520;28;19928;-71
2021/09/21 05:38:34;;;;;;;;;;;8.70;99.90;;;;;;8353325;28;19928;-73
2021/09/21 05:42:36;;;;;;;;;;;8.70;99.90;;;;;;8354253;28;19928;-74
2021/09/21 05:46:38;;;;;;;;;;;8.70;99.90;;;;;;8356421;28;19931;-73
2021/09/21 05:50:40;;;;;;;;;;;8.70;99.90;;;;;;8354297;28;20296;-74
2021/09/21 05:54:42;;;;;;;;;;;8.70;99.90;;;;;;8352024;28;19925;-73
2021/09/21 05:58:44;;;;;;;;;;;8.70;99.90;;;;;;8361366;28;19943;-73
2021/09/21 06:02:48;;;;;;;;;;;8.70;99.90;;;;;;8356828;28;20313;-74
2021/09/21 06:06:50;;;;;;;;;;;8.70;99.90;;;;;;8355735;28;19924;-74
2021/09/21 06:10:52;;;;;;;;;;;8.60;99.90;;;;;;8349309;28;20353;-72
2021/09/21 06:14:54;;;;;;;;;;;8.60;99.90;;;;;;8351537;28;19974;-74
2021/09/21 06:18:56;;;;;;;;;;;8.60;99.90;;;;;;8356833;28;19921;-74
2021/09/21 06:22:57;;;;;;;;;;;8.70;99.90;;;;;;8356216;28;19928;-73
2021/09/21 06:26:59;;;;;;;;;;;8.70;99.90;;;;;;8353753;28;19927;-74
2021/09/21 06:31:01;;;;;;;;;;;8.60;99.90;;;;;;8355046;28;20410;-73
2021/09/21 06:35:02;;;;;;;;;;;8.70;99.90;;;;;;8357653;28;20379;-73
2021/09/21 06:39:04;;;;;;;;;;;8.70;99.90;;;;;;8358246;28;19921;-73
2021/09/21 06:43:06;;;;;;;;;;;8.80;99.90;;;;;;8354540;28;20434;-73
2021/09/21 06:47:08;;;;;;;;;;;8.90;99.90;;;;;;8355190;28;19925;-74
2021/09/21 06:51:10;;;;;;;;;;;9.00;99.90;;;;;;8357552;28;20246;-74
2021/09/21 06:55:12;;;;;;;;;;;9.20;99.90;;;;;;8355932;28;20368;-74
2021/09/21 06:59:13;;;;;;;;;;;9.40;99.90;;;;;;8352554;28;19921;-74
2021/09/21 07:03:30;;;;;;;;;;;9.40;99.90;;;;;;8357312;28;19929;-73
2021/09/21 07:07:32;;;;;;;;;;;9.60;99.90;;;;;;8358498;28;19924;-74
2021/09/21 07:11:33;;;;;;;;;;;9.70;99.90;;;;;;8361482;28;19979;-73
2021/09/21 07:15:35;;;;;;;6.22;3.28;;;9.90;99.90;;;;;;8358101;28;19928;-71
2021/09/21 07:19:37;;;;;;;7.78;3.53;;;10.00;99.90;;;;;;8353282;28;19921;-71
2021/09/21 07:23:39;;;;;;;7.13;3.83;;;10.10;99.90;;;;;;8344038;28;20041;-72
2021/09/21 07:27:41;;;;;;;6.22;3.58;;;10.30;99.90;;;;;;8340848;28;20061;-71
2021/09/21 07:31:43;;;;;;;7.43;3.70;;;10.50;99.90;;;;;;8340933;28;20052;-71
2021/09/21 07:35:45;;;;;;;;;;;10.70;99.90;;;;;;8331317;28;20060;-71
2021/09/21 07:39:46;;;;;;;;;;;10.80;99.90;;;;;;8338698;28;19924;-71
2021/09/21 07:43:48;;;;;;;;;;;11.00;99.90;;;;;;8331964;28;19930;-71
2021/09/21 07:47:51;;;;;;;;;;;11.10;99.90;;;;;;8330330;28;19925;-70
2021/09/21 07:51:53;;;;;;;;;;;11.20;99.90;;;;;;8341143;28;19929;-71
2021/09/21 07:55:55;;;;;;;;;;;11.40;99.90;;;;;;8337304;28;19925;-71
2021/09/21 08:00:08;;;;;;;;;;;11.60;99.90;;;;;;8331227;28;19939;-71
2021/09/21 08:04:10;;;;;;;;;;;11.70;99.90;;;;;;8328993;28;20336;-71
2021/09/21 08:08:15;;;;;;;;;;;11.90;99.90;;;;;;8330311;28;20011;-71
2021/09/21 08:12:17;;;;;;;7.35;3.72;;;12.00;99.90;;;;;;8328347;28;19925;-73
2021/09/21 08:16:20;;;;;;;7.13;3.50;;;12.20;99.90;;;;;;8327648;28;20422;-74
2021/09/21 08:20:22;;;;;;;6.97;3.85;;;12.40;99.90;;;;;;8328513;28;20128;-74
2021/09/21 08:24:24;;;;;;;7.32;4.07;;;12.50;99.90;;;;;;8328148;28;20725;-74
2021/09/21 08:28:26;;;;;;;7.38;4.03;;;12.70;99.90;;;;;;8325771;28;20052;-73
2021/09/21 08:32:27;;;;;;;6.85;3.53;;;12.90;99.90;;;;;;8323378;28;20047;-74
2021/09/21 08:36:29;;;;;;;;;;;13.00;99.90;;;;;;8332631;28;20093;-74
2021/09/21 08:40:31;;;;;;;;;;;13.20;99.90;;;;;;8333911;28;19954;-74
2021/09/21 08:44:36;;;;;;;;;;;13.30;99.90;;;;;;8327697;28;19936;-74
2021/09/21 08:48:41;;;;;;;;;;;13.40;99.90;;;;;;8327450;28;20190;-73
2021/09/21 08:52:42;;;;;;;5.32;2.65;;;13.60;99.90;;;;;;8327082;28;19951;-73
2021/09/21 08:56:46;;;;;;;7.10;2.80;;;13.70;99.90;;;;;;8330189;28;20091;-74
2021/09/21 09:00:48;;;;;;;6.90;3.00;;;13.80;99.90;;;;;;8331717;28;20323;-73
2021/09/21 09:05:03;;;;;;;5.15;3.03;;;13.90;99.90;;;;;;8331826;28;20049;-74
2021/09/21 09:09:13;;;;;;;7.28;3.35;;;14.00;99.90;;;;;;8340800;28;20049;-73
2021/09/21 09:13:17;;;;;;;5.80;3.20;;;14.10;99.90;;;;;;8328659;28;20452;-74
2021/09/21 09:17:19;;;;;;;5.75;3.35;;;14.20;99.90;;;;;;8325822;28;20041;-74
2021/09/21 09:21:21;;;;;;;6.72;3.50;;;14.30;99.90;;;;;;8327769;28;20720;-74
2021/09/21 09:25:24;;;;;;;6.93;3.60;;;14.50;99.90;;;;;;8330555;28;20354;-74
2021/09/21 09:29:26;;;;;;;6.47;3.67;;;14.60;99.90;;;;;;8325267;28;20049;-74
2021/09/21 09:33:32;;;;;;;6.75;3.67;;;14.70;99.90;;;;;;8333221;28;20092;-74
2021/09/21 09:37:39;;;;;;;5.77;3.10;;;14.80;99.90;;;;;;8324681;28;20049;-74
2021/09/21 09:41:43;;;;;;;8.93;3.40;;;14.90;99.90;;;;;;8327908;28;20122;-73
2021/09/21 09:45:47;;;;;;;7.85;3.20;;;15.00;99.90;;;;;;8323995;28;20060;-74
2021/09/21 09:49:49;;;;;;;5.38;3.22;;;15.10;99.90;;;;;;8324973;28;20132;-73
2021/09/21 09:53:51;;;;;;;6.60;3.25;;;15.20;99.90;;;;;;8322734;28;20515;-74
2021/09/21 09:57:52;;;;;;;;;;;15.20;99.90;;;;;;8323803;28;19936;-73
2021/09/21 10:01:54;;;;;;;;;;;15.30;99.90;;;;;;8326039;28;19928;-73
2021/09/21 10:05:56;;;;;;;;;;;15.40;99.90;;;;;;8325988;28;20428;-74
2021/09/21 10:09:58;;;;;;;;;;;15.40;99.90;;;;;;8330158;28;19925;-74
2021/09/21 10:14:00;;;;;;;;;;;15.50;99.90;;;;;;8331074;28;19933;-74
2021/09/21 10:18:02;;;;;;;;;;;15.60;99.90;;;;;;8332042;28;19932;-74
2021/09/21 10:22:04;;;;;;;;;;;15.70;99.90;;;;;;8326382;28;19920;-74
2021/09/21 10:26:12;;;;;;;;;;;15.80;99.90;;;;;;8323624;28;19946;-73
2021/09/21 10:30:20;;;;;;;;;;;15.80;99.90;;;;;;8327290;28;19928;-74
2021/09/21 10:34:22;;;;;;;5.60;2.90;;;15.90;99.90;;;;;;8327856;28;19924;-74
2021/09/21 10:38:24;;;;;;;6.32;3.08;;;16.00;99.90;;;;;;8329964;28;20049;-74
2021/09/21 10:42:26;;;;;;;4.75;2.35;;;16.10;99.90;;;;;;8331639;28;20044;-73
2021/09/21 10:46:28;;;;;;;4.53;2.15;;;16.30;99.90;;;;;;8334640;28;20049;-74
2021/09/21 10:50:37;;;;;;;4.93;2.60;;;16.40;99.90;;;;;;8330760;28;20172;-74
2021/09/21 10:54:54;;;;;;;4.93;2.42;;;16.40;99.90;;;;;;8332377;28;20048;-74
2021/09/21 10:59:00;;;;;;;6.40;2.53;;;16.50;99.90;;;;;;8331017;28;20044;-74
2021/09/21 11:03:03;;;;;;;6.33;2.47;;;16.60;99.90;;;;;;8333786;28;20045;-74
2021/09/21 11:07:06;;;;;;;6.97;2.28;;;16.70;99.90;;;;;;8332747;28;20049;-74
2021/09/21 11:11:08;;;;;;;6.72;2.67;;;16.70;99.90;;;;;;8331768;28;20119;-72
2021/09/21 11:15:11;;;;;;;4.72;2.58;;;16.70;99.90;;;;;;8333357;28;20045;-72
2021/09/21 11:19:12;;;;;;;5.03;2.50;;;16.80;99.90;;;;;;8334637;28;20045;-71
2021/09/21 11:23:16;;;;;;;5.18;2.40;;;16.80;99.90;;;;;;8330627;28;20057;-72
2021/09/21 11:27:18;;;;;;;6.30;2.70;;;16.90;99.90;;;;;;8338026;28;20056;-72
2021/09/21 11:31:20;;;;;;;6.65;2.92;;;17.00;99.90;;;;;;8334715;28;20114;-71
2021/09/21 11:35:22;;;;;;;4.68;2.58;;;17.00;99.90;;;;;;8331298;28;20477;-71
2021/09/21 11:39:28;;;;;;;4.47;2.42;;;17.10;99.40;;;;;;8336611;28;20366;-71
2021/09/21 11:43:30;;;;;;;4.95;2.80;;;17.10;99.90;;;;;;8333708;28;20354;-71
2021/09/21 11:47:41;;;;;;;6.97;2.47;;;17.10;99.50;;;;;;8335388;28;20057;-71
2021/09/21 11:51:43;;;;;;;5.88;2.53;;;17.10;99.10;;;;;;8334056;28;20053;-71
2021/09/21 11:55:47;;;;;;;6.53;2.97;;;17.10;99.30;;;;;;8334676;28;20465;-71
2021/09/21 11:59:49;;;;;;;4.93;2.40;;;17.10;99.30;;;;;;8332240;28;20083;-72
2021/09/21 12:03:54;;;;;;;6.68;2.72;;;17.10;99.50;;;;;;8330204;28;20074;-72
2021/09/21 12:07:59;;;;;;;5.75;2.58;;;17.10;99.30;;;;;;8325386;28;20045;-73
2021/09/21 12:12:11;;;;;;;5.10;2.28;;;17.10;99.30;;;;;;8337573;28;20053;-71
2021/09/21 12:16:13;;;;;;;5.28;2.10;;;17.10;99.10;;;;;;8333234;28;20057;-71
2021/09/21 12:20:15;;;;;;;4.95;2.10;;;17.20;99.30;;;;;;8338630;28;20045;-71
2021/09/21 12:24:17;;;;;;;5.30;2.45;;;17.20;99.40;;;;;;8332423;28;20053;-71
2021/09/21 12:28:43;;;;;;;4.70;2.38;;;17.30;99.60;;;;;;8333990;28;20053;-71
2021/09/21 12:32:58;;;;;;;4.33;2.17;;;17.50;99.70;;;;;;8328494;28;20050;-71
2021/09/21 12:37:00;;;;;;;6.10;2.42;;;17.60;99.20;;;;;;8331241;28;20041;-71
2021/09/21 12:41:04;;;;;;;4.60;2.15;;;17.70;99.40;;;;;;8338173;28;20045;-72
2021/09/21 12:45:08;;;;;;;4.28;2.10;;;17.70;98.80;;;;;;8336700;28;20071;-72
2021/09/21 12:49:14;;;;;;;5.55;2.28;;;17.70;98.70;;;;;;8334548;28;20111;-72
2021/09/21 12:53:19;;;;;;;6.28;2.38;;;17.80;98.70;;;;;;8333555;28;20404;-71
2021/09/21 12:57:21;;;;;;;8.35;2.38;;;17.80;98.70;;;;;;8332728;28;20057;-72
2021/09/21 13:01:23;;;;;;;4.60;2.30;;;17.80;98.70;;;;;;8336337;28;20573;-71
2021/09/21 13:05:25;;;;;;;5.00;2.30;;;17.80;98.70;;;;;;8331882;28;20132;-72
2021/09/21 13:09:27;;;;;;;4.15;2.20;;;17.80;99.00;;;;;;8340844;28;20045;-72
2021/09/21 13:13:31;;;;;;;6.15;2.22;;;17.80;98.80;;;;;;8338699;28;20049;-73
2021/09/21 13:17:33;;;;;;;4.28;2.17;;;17.80;98.70;;;;;;8333231;28;20053;-75
2021/09/21 13:21:35;;;;;;;4.63;2.22;;;17.90;98.60;;;;;;8333986;28;20049;-74
2021/09/21 13:25:37;;;;;;;4.40;2.05;;;17.90;98.70;;;;;;8340193;28;20053;-75
2021/09/21 13:29:39;;;;;;;4.55;2.33;;;18.00;98.50;;;;;;8332958;28;20053;-74
2021/09/21 13:33:41;;;;;;;5.10;2.90;;;18.00;98.80;;;;;;8330471;28;20065;-74
2021/09/21 13:37:44;;;;;;;4.38;2.45;;;18.10;97.50;;;;;;8326363;28;20049;-74
2021/09/21 13:41:55;;;;;;;6.00;2.50;;;18.10;97.90;;;;;;8335330;28;20103;-74
2021/09/21 13:45:57;;;;;;;5.63;2.55;;;18.10;97.40;;;;;;8337002;28;20041;-74
2021/09/21 13:49:59;;;;;;;5.10;2.38;;;18.20;97.80;;;;;;8331336;28;20788;-74
2021/09/21 13:54:01;;;;;;;3.83;1.83;;;18.20;98.10;;;;;;8331061;28;20542;-74
2021/09/21 13:58:03;;;;;;;5.32;2.20;;;18.30;98.10;;;;;;8328264;28;20439;-74
2021/09/21 14:02:06;;;;;;;4.82;2.05;;;18.40;97.90;;;;;;8334507;28;20068;-74
2021/09/21 14:06:09;;;;;;;4.57;2.28;;;18.40;97.70;;;;;;8337190;28;20423;-74
2021/09/21 14:10:12;;;;;;;4.57;2.40;;;18.40;98.10;;;;;;8334216;28;20052;-75
2021/09/21 14:14:13;;;;;;;6.05;2.80;;;18.40;97.60;;;;;;8336254;28;20045;-74
2021/09/21 14:18:15;;;;;;;4.28;2.20;;;18.40;97.70;;;;;;8341980;28;20456;-71
2021/09/21 14:22:17;;;;;;;4.82;2.45;;;18.40;97.80;;;;;;8340754;28;20045;-71
2021/09/21 14:26:19;;;;;;;6.93;2.30;;;18.40;98.00;;;;;;8326258;28;20049;-71
2021/09/21 14:30:23;;;;;;;5.47;2.40;;;18.50;98.10;;;;;;8330425;28;20060;-72
2021/09/21 14:34:26;;;;;;;4.22;2.15;;;18.50;98.00;;;;;;8326086;28;20061;-71
2021/09/21 14:38:27;;;;;;;5.05;2.53;;;18.60;98.20;;;;;;8327338;28;20068;-72
2021/09/21 14:42:29;;;;;;;5.35;2.38;;;18.60;97.60;;;;;;8327188;28;20393;-72
2021/09/21 14:46:31;;;;;;;3.92;1.92;;;18.60;97.80;;;;;;8327880;28;20045;-71
2021/09/21 14:50:34;;;;;;;5.95;2.38;;;18.60;98.00;;;;;;8339526;28;20049;-72
2021/09/21 14:54:35;;;;;;;3.90;2.00;;;18.60;97.70;;;;;;8323965;28;20824;-71
2021/09/21 14:58:43;;;;;;;5.13;2.45;;;18.60;98.00;;;;;;8332852;28;20049;-71
2021/09/21 15:02:45;;;;;;;4.97;2.20;;;18.50;97.80;;;;;;8328547;28;20049;-71
2021/09/21 15:06:47;;;;;;;4.35;2.42;;;18.50;98.10;;;;;;8324862;28;20480;-71
2021/09/21 15:10:49;;;;;;;4.50;2.10;;;18.50;98.00;;;;;;8326596;28;20052;-71
2021/09/21 15:14:50;;;;;;;5.13;2.13;;;18.50;97.80;;;;;;8335951;28;20560;-71
2021/09/21 15:18:52;;;;;;;5.63;2.00;;;18.50;98.00;;;;;;8322952;28;20070;-72
2021/09/21 15:22:57;;;;;;;4.20;2.05;;;18.40;98.20;;;;;;8328005;28;20501;-71
2021/09/21 15:26:59;;;;;;;5.53;2.15;;;18.40;98.40;;;;;;8323423;28;20409;-71
2021/09/21 15:31:01;;;;;;;5.35;2.60;;;18.40;98.40;;;;;;8325223;28;20064;-74
2021/09/21 15:35:03;;;;;;;5.47;2.40;;;18.40;98.40;;;;;;8337611;28;20056;-74
2021/09/21 15:39:06;;;;;;;5.90;2.70;;;18.40;98.50;;;;;;8323892;28;20041;-74
2021/09/21 15:43:08;;;;;;;4.90;2.50;;;18.30;98.80;;;;;;8326204;28;20045;-73
2021/09/21 15:47:10;;;;;;;5.38;2.55;;;18.30;98.80;;;;;;8323580;28;20075;-74
2021/09/21 15:51:12;;;;;;;4.85;2.22;;;18.30;98.90;;;;;;8323228;28;20072;-74
2021/09/21 15:55:15;;;;;;;4.70;2.28;;;18.20;99.00;;;;;;8323368;28;20045;-74
2021/09/21 15:59:17;;;;;;;4.85;2.28;;;18.20;99.20;;;;;;8327536;28;20041;-74
2021/09/21 16:03:20;;;;;;;7.13;2.13;;;18.10;99.20;;;;;;8323477;28;20451;-74
2021/09/21 16:07:27;;;;;;;4.32;2.13;;;18.10;99.40;;;;;;8323079;28;21740;-74
2021/09/21 16:11:29;;;;;;;5.15;2.00;;;18.00;99.50;;;;;;8320282;28;20048;-74
2021/09/21 16:15:31;;;;;;;4.45;2.10;;;18.00;99.70;;;;;;8324847;28;20557;-74
2021/09/21 16:19:34;;;;;;;4.88;2.38;;;18.00;99.80;;;;;;8320006;28;20042;-74
2021/09/21 16:23:37;;;;;;;3.85;1.90;;;17.90;99.80;;;;;;8324989;28;20435;-74
2021/09/21 16:27:42;;;;;;;4.57;2.30;;;17.90;99.90;;;;;;8324281;28;20041;-75
2021/09/21 16:31:45;;;;;;;4.47;1.90;;;17.90;99.90;;;;;;8325756;28;20060;-74
2021/09/21 16:35:47;;;;;;;5.00;2.10;;;17.80;99.90;;;;;;8320868;28;20053;-74
2021/09/21 16:39:49;;;;;;;5.18;2.10;;;17.80;99.90;;;;;;8322212;28;20118;-74
2021/09/21 16:43:52;;;;;;;7.75;2.08;;;17.80;99.90;;;;;;8320698;28;20504;-74
2021/09/21 16:47:55;;;;;;;4.30;2.10;;;17.80;99.90;;;;;;8321590;28;20046;-74
2021/09/21 16:51:57;;;;;;;3.25;1.63;;;17.80;99.90;;;;;;8321465;28;20049;-74
2021/09/21 16:56:00;;;;;;;7.10;1.98;;;17.80;99.90;;;;;;8325725;28;20053;-74
2021/09/21 17:00:05;;;;;;;5.15;1.80;;;17.80;99.90;;;;;;8326855;28;20489;-75
2021/09/21 17:04:11;;;;;;;5.38;1.90;;;17.80;99.90;;;;;;8326841;28;20045;-75
2021/09/21 17:08:26;;;;;;;4.00;2.03;;;17.80;99.90;;;;;;8320673;28;20103;-74
2021/09/21 17:12:28;;;;;;;7.82;3.47;;;17.80;99.90;;;;;;8321835;28;20045;-74
2021/09/21 17:16:30;;;;;;;14.63;3.58;;;17.70;99.90;;;;;;8321290;28;20061;-74
2021/09/21 17:20:32;;;;;;;6.95;3.53;;;17.60;99.90;;;;;;8328849;28;20045;-74
2021/09/21 17:24:34;;;;;;;5.78;3.10;;;17.60;99.90;;;;;;8320851;28;20493;-74
2021/09/21 17:28:35;;;;;;;4.18;2.33;;;17.50;99.90;;;;;;8321169;28;20057;-74
2021/09/21 17:32:38;;;;;;;4.75;2.28;;;17.40;99.90;;;;;;8321994;28;20532;-74
2021/09/21 17:36:41;;;;;;;5.47;2.53;;;17.30;99.90;;;;;;8324328;28;20111;-74
2021/09/21 17:40:44;;;;;;;4.10;2.20;;;17.30;99.90;;;;;;8324889;28;20832;-74
2021/09/21 17:44:46;;;;;;;6.32;2.33;;;17.20;99.90;;;;;;8329544;28;20529;-74
2021/09/21 17:48:48;;;;;;;5.47;2.50;;;17.10;99.90;;;;;;8331693;28;20045;-74
2021/09/21 17:52:51;;;;;;;4.50;2.03;;;17.00;99.90;;;;;;8333427;28;20564;-74
2021/09/21 17:56:53;;;;;;;7.97;2.50;;;17.00;99.90;;;;;;8331817;28;20045;-74
2021/09/21 18:00:54;;;;;;;5.03;2.40;;;16.80;99.90;;;;;;8332753;28;20045;-74
2021/09/21 18:04:56;;;;;;;8.95;2.40;;;16.80;99.90;;;;;;8331048;28;20033;-74
2021/09/21 18:08:58;;;;;;;6.03;2.70;;;16.70;99.90;;;;;;8331957;28;20048;-74
2021/09/21 18:13:00;;;;;;;4.30;2.42;;;16.60;99.90;;;;;;8334740;28;20049;-74
2021/09/21 18:17:08;;;;;;;5.03;2.42;;;16.50;99.90;;;;;;8341951;28;20487;-74
2021/09/21 18:21:48;;;;;;;5.93;2.22;;;16.40;99.90;;;;;;8343115;28;20100;-74
2021/09/21 18:25:52;;;;;;;5.75;2.40;;;16.30;99.90;;;;;;8334417;28;20049;-71
2021/09/21 18:29:54;;;;;;;7.13;2.40;;;16.20;99.90;;;;;;8333884;28;20041;-71
2021/09/21 18:33:56;;;;;;;4.97;2.45;;;16.20;99.90;;;;;;8335447;28;20052;-71
2021/09/21 18:37:57;;;;;;;5.50;2.60;;;16.10;99.90;;;;;;8334564;28;20401;-72
2021/09/21 18:41:59;;;;;;;4.40;2.30;;;16.00;99.90;;;;;;8334749;28;20042;-71
2021/09/21 18:46:01;;;;;;;4.38;2.20;;;16.00;99.90;;;;;;8333895;28;20099;-71
2021/09/21 18:50:05;;;;;;;5.15;2.33;;;15.90;99.90;;;;;;8332927;28;20049;-71
2021/09/21 18:54:07;;;;;;;4.22;2.30;;;15.80;99.90;;;;;;8336653;28;20055;-71
2021/09/21 18:58:09;;;;;;;4.28;2.28;;;15.80;99.90;;;;;;8335764;28;20060;-72
2021/09/21 19:02:10;;;;;;;4.68;2.13;;;15.70;99.90;;;;;;8335693;28;20049;-71
2021/09/21 19:06:12;;;;;;;5.93;2.60;;;15.70;99.90;;;;;;8339288;28;20044;-72
2021/09/21 19:10:16;;;;;;;4.43;2.30;;;15.60;99.90;;;;;;8337098;28;20045;-72
2021/09/21 19:14:18;;;;;;;4.78;2.65;;;15.50;99.90;;;;;;8339164;28;20148;-72
2021/09/21 19:18:19;;;;;;;7.28;2.50;;;15.50;99.90;;;;;;8338167;28;20037;-71
2021/09/21 19:22:21;;;;;;;4.63;2.35;;;15.40;99.90;;;;;;8335420;28;20103;-71
2021/09/21 19:26:24;;;;;;;7.75;2.70;;;15.30;99.90;;;;;;8343032;28;20663;-72
2021/09/21 19:30:26;;;;;;;6.47;2.65;;;15.30;99.90;;;;;;8339225;28;20071;-72
2021/09/21 19:34:28;;;;;;;5.13;3.00;;;15.30;99.90;;;;;;8333953;28;20058;-71
2021/09/21 19:38:29;;;;;;;6.63;3.10;;;15.20;99.90;;;;;;8338102;28;20456;-72
2021/09/21 19:42:31;;;;;;;5.93;2.97;;;15.20;99.90;;;;;;8331570;28;20046;-72
2021/09/21 19:46:33;;;;;;;6.03;3.00;;;15.10;99.90;;;;;;8335979;28;20432;-71
2021/09/21 19:50:35;;;;;;;4.97;2.78;;;15.10;99.90;;;;;;8328995;28;20053;-72
2021/09/21 19:54:38;;;;;;;5.38;3.03;;;15.00;99.90;;;;;;8329498;28;20124;-71
2021/09/21 19:58:40;;;;;;;5.05;3.03;;;14.90;99.90;;;;;;8331234;28;20080;-72
2021/09/21 20:02:42;;;;;;;6.38;3.05;;;14.90;99.90;;;;;;8342129;28;20067;-71
2021/09/21 20:06:44;;;;;;;4.97;2.83;;;14.90;99.90;;;;;;8334391;28;20045;-72
2021/09/21 20:10:46;;;;;;;7.07;3.22;;;14.80;99.90;;;;;;8338940;28;20045;-72
2021/09/21 20:14:47;;;;;;;6.18;3.22;;;14.70;99.90;;;;;;8342789;28;20049;-72
2021/09/21 20:18:49;;;;;;;4.72;2.78;;;14.70;99.90;;;;;;8337861;28;20377;-71
2021/09/21 20:22:51;;;;;;;6.00;3.20;;;14.60;99.90;;;;;;8334183;28;20472;-72
2021/09/21 20:26:53;;;;;;;7.03;2.97;;;14.60;99.90;;;;;;8331370;28;20485;-72
2021/09/21 20:30:55;;;;;;;5.70;2.95;;;14.50;99.90;;;;;;8335624;28;20053;-71
2021/09/21 20:35:02;;;;;;;5.30;3.00;;;14.50;99.90;;;;;;8331803;28;20404;-72
2021/09/21 20:39:04;;;;;;;5.70;3.33;;;14.40;99.90;;;;;;8337327;28;19921;-72
2021/09/21 20:43:05;;;;;;;6.15;3.40;;;14.40;99.90;;;;;;8335967;28;20045;-72
2021/09/21 20:47:08;;;;;;;6.53;3.50;;;14.30;99.90;;;;;;8335311;28;20063;-72
2021/09/21 20:51:13;;;;;;;7.03;3.70;;;14.30;99.90;;;;;;8335539;28;20052;-72
2021/09/21 20:55:15;;;;;;;7.10;3.85;;;14.20;99.90;;;;;;8338008;28;20048;-72
2021/09/21 20:59:16;;;;;;;8.35;4.50;;;14.20;99.90;;;;;;8335299;28;20056;-71
2021/09/21 21:03:18;;;;;;;8.13;3.85;;;14.20;99.90;;;;;;8346048;28;20038;-72
2021/09/21 21:07:20;;;;;;;7.72;4.15;;;14.10;99.90;;;;;;8355957;28;20040;-72
2021/09/21 21:11:22;;;;;;;6.40;3.80;;;14.10;99.90;;;;;;8357964;28;20041;-71
2021/09/21 21:15:24;;;;;;;7.03;3.70;;;14.00;99.90;;;;;;8355459;28;20389;-72
2021/09/21 21:19:25;;;;;;;5.75;3.60;;;14.00;99.90;;;;;;8352768;28;20040;-71
2021/09/21 21:23:27;;;;;;;;;;;14.00;99.90;;;;;;8351935;28;20493;-71
2021/09/21 21:27:29;;;;;;;6.20;3.65;;;13.90;99.90;;;;;;8354463;28;19921;-71
2021/09/21 21:31:31;;;;;;;8.93;4.60;;;13.90;99.90;;;;;;8356482;28;20082;-72
2021/09/21 21:35:37;;;;;;;7.82;4.10;;;13.80;99.90;;;;;;8357036;28;20053;-71
2021/09/21 21:39:39;;;;;;;9.05;4.20;;;13.80;99.90;;;;;;8356684;28;20484;-72
2021/09/21 21:43:40;;;;;;;8.23;4.32;;;13.70;99.90;;;;;;8354538;28;20060;-71
2021/09/21 21:47:42;;;;;;;6.72;4.00;;;13.70;99.90;;;;;;8353074;28;20045;-72
2021/09/21 21:51:45;;;;;;;6.63;4.32;;;13.70;99.90;;;;;;8354779;28;20049;-72
2021/09/21 21:55:46;;;;;;;8.00;4.13;;;13.60;99.90;;;;;;8356737;28;20049;-71
2021/09/21 21:59:48;;;;;;;6.85;4.03;;;13.60;99.90;;;;;;8356656;28;20040;-72
2021/09/21 22:03:50;;;;;;;5.85;3.28;;;13.50;99.90;;;;;;8356090;28;20068;-72
2021/09/21 22:07:52;;;;;;;8.13;3.47;;;13.50;99.90;;;;;;8355538;28;20045;-72
2021/09/21 22:11:54;;;;;;;7.25;4.35;;;13.50;99.90;;;;;;8355286;28;20048;-72